createdAt,value
2019-03-29T00:01:47.702Z,34.37
2019-03-29T00:04:20.094Z,27.90
2019-03-29T00:06:51.033Z,31.90
2019-03-29T00:09:22.465Z,27.60
2019-03-29T00:11:53.466Z,26.13
2019-03-29T00:14:25.590Z,27.57
2019-03-29T00:16:56.550Z,35.23
2019-03-29T00:19:27.906Z,33.63
2019-03-29T00:21:59.046Z,29.07
2019-03-29T00:24:30.375Z,30.00
2019-03-29T00:27:01.216Z,30.20
2019-03-29T00:29:32.238Z,29.03
2019-03-29T00:32:02.979Z,29.57
2019-03-29T00:34:34.453Z,34.87
2019-03-29T00:37:05.789Z,31.73
2019-03-29T00:39:36.707Z,30.43
2019-03-29T00:42:08.652Z,28.80
2019-03-29T00:44:40.770Z,33.33
2019-03-29T00:47:11.709Z,32.37
2019-03-29T00:49:42.858Z,33.53
2019-03-29T00:52:14.189Z,37.97
2019-03-29T00:54:46.981Z,34.17
2019-03-29T00:57:18.051Z,31.70
2019-03-29T00:59:49.194Z,47.63
2019-03-29T01:02:20.331Z,32.33
2019-03-29T01:04:51.795Z,46.23
2019-03-29T01:07:22.875Z,46.93
2019-03-29T01:09:54.223Z,31.97
2019-03-29T01:12:25.039Z,34.13
2019-03-29T01:14:56.104Z,47.00
2019-03-29T01:17:27.356Z,44.80
2019-03-29T01:19:58.100Z,34.87
2019-03-29T01:22:28.862Z,50.77
2019-03-29T01:24:59.891Z,35.57
2019-03-29T01:27:30.906Z,57.53
2019-03-29T01:30:01.813Z,39.77
2019-03-29T01:32:33.054Z,26.07
2019-03-29T01:35:04.934Z,28.93
2019-03-29T01:37:36.083Z,24.50
2019-03-29T01:40:09.174Z,33.63
2019-03-29T01:42:40.659Z,39.57
2019-03-29T01:45:12.169Z,35.60
2019-03-29T01:47:42.927Z,47.07
2019-03-29T01:50:14.581Z,45.33
2019-03-29T01:52:45.995Z,37.93
2019-03-29T01:55:17.440Z,64.47
2019-03-29T01:57:48.201Z,42.23
2019-03-29T02:00:34.319Z,33.40
2019-03-29T02:03:06.526Z,31.00
2019-03-29T02:05:37.212Z,35.50
2019-03-29T02:08:07.952Z,36.97
2019-03-29T02:10:38.763Z,39.17
2019-03-29T02:13:09.997Z,29.23
2019-03-29T02:15:40.711Z,26.53
2019-03-29T02:18:11.420Z,36.23
2019-03-29T02:20:42.230Z,34.37
2019-03-29T02:23:12.970Z,29.70
2019-03-29T02:25:43.879Z,28.23
2019-03-29T02:28:14.913Z,30.60
2019-03-29T02:30:45.702Z,25.40
2019-03-29T02:33:16.562Z,29.43
2019-03-29T02:35:47.395Z,30.23
2019-03-29T02:38:18.633Z,32.23
2019-03-29T02:40:50.994Z,31.23
2019-03-29T02:43:22.490Z,30.20
2019-03-29T02:45:53.408Z,33.67
2019-03-29T02:48:24.593Z,32.43
2019-03-29T02:50:55.553Z,36.20
2019-03-29T02:53:26.539Z,45.57
2019-03-29T02:55:59.174Z,37.67
2019-03-29T02:58:30.460Z,37.57
2019-03-29T03:01:02.203Z,41.83
2019-03-29T03:03:32.972Z,36.87
2019-03-29T03:06:06.559Z,33.00
2019-03-29T03:08:37.596Z,43.77
2019-03-29T03:11:09.100Z,52.37
2019-03-29T03:13:39.948Z,38.17
2019-03-29T03:16:11.215Z,41.60
2019-03-29T03:18:42.080Z,39.03
2019-03-29T03:21:13.711Z,39.63
2019-03-29T03:23:44.467Z,34.07
2019-03-29T03:26:15.495Z,34.37
2019-03-29T03:28:46.232Z,36.53
2019-03-29T03:31:16.978Z,40.03
2019-03-29T03:33:47.974Z,38.13
2019-03-29T03:36:19.252Z,38.13
2019-03-29T03:38:50.160Z,35.27
2019-03-29T03:41:20.965Z,37.53
2019-03-29T03:43:51.775Z,36.67
2019-03-29T03:46:22.776Z,38.67
2019-03-29T03:48:53.544Z,40.53
2019-03-29T03:51:24.795Z,38.67
2019-03-29T03:53:56.314Z,41.87
2019-03-29T03:56:29.739Z,38.63
2019-03-29T03:59:02.182Z,38.20
2019-03-29T04:01:33.101Z,40.53
2019-03-29T04:04:04.049Z,41.23
2019-03-29T04:06:35.374Z,38.60
2019-03-29T04:09:07.791Z,42.73
2019-03-29T04:11:38.564Z,44.30
2019-03-29T04:14:09.335Z,44.00
2019-03-29T04:16:40.875Z,43.17
2019-03-29T04:19:11.584Z,45.83
2019-03-29T04:21:42.749Z,44.77
2019-03-29T04:24:13.443Z,43.43
2019-03-29T04:26:44.251Z,43.00
2019-03-29T04:29:15.771Z,42.10
2019-03-29T04:31:46.526Z,42.83
2019-03-29T04:34:17.270Z,41.00
2019-03-29T04:36:48.155Z,40.37
2019-03-29T04:39:18.890Z,41.30
2019-03-29T04:41:49.994Z,38.93
2019-03-29T04:44:20.819Z,37.53
2019-03-29T04:46:51.820Z,40.57
2019-03-29T04:49:22.945Z,35.47
2019-03-29T04:51:53.931Z,39.37
2019-03-29T04:54:24.849Z,37.67
2019-03-29T04:56:56.136Z,38.83
2019-03-29T04:59:27.187Z,37.90
2019-03-29T05:01:58.545Z,35.00
2019-03-29T05:04:29.370Z,34.43
2019-03-29T05:07:00.137Z,36.10
2019-03-29T05:09:30.906Z,33.00
2019-03-29T05:12:02.300Z,37.37
2019-03-29T05:14:33.096Z,38.83
2019-03-29T05:17:04.046Z,38.10
2019-03-29T05:19:35.094Z,40.20
2019-03-29T05:22:05.906Z,39.23
2019-03-29T05:24:36.711Z,39.87
2019-03-29T05:27:07.427Z,37.77
2019-03-29T05:29:38.168Z,40.47
2019-03-29T05:32:09.296Z,39.53
2019-03-29T05:34:40.137Z,38.10
2019-03-29T05:37:10.847Z,42.67
2019-03-29T05:39:41.684Z,37.90
2019-03-29T05:42:12.378Z,39.03
2019-03-29T05:44:43.090Z,40.87
2019-03-29T05:47:13.986Z,39.33
2019-03-29T05:49:45.029Z,35.83
2019-03-29T05:52:16.078Z,36.10
2019-03-29T05:54:47.194Z,36.83
2019-03-29T05:57:17.933Z,38.13
2019-03-29T05:59:49.153Z,38.70
2019-03-29T06:02:19.954Z,36.83
2019-03-29T06:04:50.868Z,37.33
2019-03-29T06:07:22.116Z,36.73
2019-03-29T06:09:52.872Z,36.43
2019-03-29T06:12:23.900Z,35.03
2019-03-29T06:14:54.749Z,35.63
2019-03-29T06:17:25.572Z,37.80
2019-03-29T06:19:56.403Z,38.47
2019-03-29T06:22:27.249Z,38.73
2019-03-29T06:24:58.015Z,36.00
2019-03-29T06:27:29.199Z,39.73
2019-03-29T06:30:00.105Z,38.40
2019-03-29T06:32:31.070Z,41.23
2019-03-29T06:35:01.898Z,35.93
2019-03-29T06:37:34.756Z,39.37
2019-03-29T06:40:07.623Z,39.00
2019-03-29T06:42:38.450Z,39.40
2019-03-29T06:45:09.761Z,42.33
2019-03-29T06:47:40.843Z,39.10
2019-03-29T06:50:14.083Z,38.67
2019-03-29T06:52:44.091Z,41.20
2019-03-29T06:55:14.895Z,43.53
2019-03-29T06:57:45.891Z,36.73
2019-03-29T07:00:16.970Z,39.60
2019-03-29T07:02:48.124Z,43.80
2019-03-29T07:05:18.949Z,45.83
2019-03-29T07:07:50.103Z,41.03
2019-03-29T07:10:21.157Z,41.77
2019-03-29T07:12:52.004Z,45.33
2019-03-29T07:15:22.819Z,43.73
2019-03-29T07:17:53.862Z,41.63
2019-03-29T07:20:24.772Z,43.53
2019-03-29T07:22:55.839Z,41.90
2019-03-29T07:25:26.617Z,45.30
2019-03-29T07:27:57.330Z,44.63
2019-03-29T07:30:28.046Z,39.43
2019-03-29T07:32:58.883Z,44.37
2019-03-29T07:35:29.619Z,43.80
2019-03-29T07:38:00.814Z,44.40
2019-03-29T07:40:31.570Z,42.80
2019-03-29T07:43:02.583Z,40.80
2019-03-29T07:45:33.717Z,41.30
2019-03-29T07:48:04.452Z,38.97
2019-03-29T07:50:35.258Z,39.37
2019-03-29T07:53:06.501Z,39.13
2019-03-29T07:55:37.654Z,37.67
2019-03-29T07:58:08.578Z,41.03
2019-03-29T08:00:39.437Z,43.03
2019-03-29T08:03:10.181Z,38.83
2019-03-29T08:05:41.447Z,41.37
2019-03-29T08:08:23.301Z,39.23
2019-03-29T08:10:44.622Z,38.63
2019-03-29T08:13:16.248Z,41.53
2019-03-29T08:15:47.376Z,37.40
2019-03-29T08:18:18.320Z,37.60
2019-03-29T08:20:49.049Z,37.60
2019-03-29T08:23:22.128Z,37.83
2019-03-29T08:25:52.940Z,36.73
2019-03-29T08:28:23.734Z,35.00
2019-03-29T08:30:54.927Z,33.43
2019-03-29T08:33:25.697Z,32.80
2019-03-29T08:35:56.749Z,31.90
2019-03-29T08:38:27.545Z,32.43
2019-03-29T08:40:58.254Z,31.53
2019-03-29T08:43:29.615Z,32.27
2019-03-29T08:46:00.757Z,31.63
2019-03-29T08:48:32.113Z,27.87
2019-03-29T08:51:02.861Z,28.97
2019-03-29T08:53:33.735Z,27.23
2019-03-29T08:56:05.029Z,29.60
2019-03-29T08:58:35.899Z,29.57
2019-03-29T09:01:12.835Z,28.87
2019-03-29T09:03:44.164Z,28.37
2019-03-29T09:06:15.000Z,28.83
2019-03-29T09:08:46.334Z,27.85
2019-03-29T09:11:17.350Z,27.43
2019-03-29T09:13:48.076Z,29.90
2019-03-29T09:16:18.846Z,30.10
2019-03-29T09:18:53.646Z,28.03
2019-03-29T09:21:24.683Z,28.50
2019-03-29T09:23:55.738Z,27.33
2019-03-29T09:26:26.840Z,27.83
2019-03-29T09:28:57.951Z,28.13
2019-03-29T09:31:28.840Z,28.30
2019-03-29T09:34:00.322Z,27.20
2019-03-29T09:36:33.662Z,26.67
2019-03-29T09:39:06.737Z,24.57
2019-03-29T09:41:37.846Z,26.03
2019-03-29T09:44:09.119Z,24.63
2019-03-29T09:46:40.317Z,24.90
2019-03-29T09:49:11.573Z,22.63
2019-03-29T09:51:42.327Z,22.40
2019-03-29T09:54:13.775Z,20.80
2019-03-29T09:56:48.111Z,20.17
2019-03-29T09:59:17.664Z,19.40
2019-03-29T10:01:48.479Z,18.30
2019-03-29T10:04:19.403Z,20.17
2019-03-29T10:06:50.194Z,18.33
2019-03-29T10:09:21.143Z,17.40
2019-03-29T10:11:52.320Z,16.67
2019-03-29T10:14:23.521Z,14.50
2019-03-29T10:16:54.515Z,17.07
2019-03-29T10:19:25.369Z,16.97
2019-03-29T10:21:56.612Z,16.07
2019-03-29T10:24:27.701Z,15.87
2019-03-29T10:26:59.134Z,13.87
2019-03-29T10:29:30.093Z,14.83
2019-03-29T10:32:00.944Z,13.13
2019-03-29T10:34:32.267Z,12.67
2019-03-29T10:37:03.509Z,12.20
2019-03-29T10:39:35.776Z,12.77
2019-03-29T10:42:06.890Z,12.23
2019-03-29T10:44:37.721Z,11.30
2019-03-29T10:47:08.527Z,10.13
2019-03-29T10:49:39.279Z,12.37
2019-03-29T10:52:10.222Z,11.17
2019-03-29T10:54:41.070Z,10.10
2019-03-29T10:57:11.853Z,9.07
2019-03-29T10:59:42.750Z,6.93
2019-03-29T11:02:13.672Z,6.37
2019-03-29T11:04:44.492Z,7.67
2019-03-29T11:07:15.724Z,7.20
2019-03-29T11:09:46.821Z,7.77
2019-03-29T11:12:17.687Z,5.67
2019-03-29T11:14:48.564Z,6.60
2019-03-29T11:17:19.297Z,5.47
2019-03-29T11:19:50.505Z,6.97
2019-03-29T11:22:21.215Z,6.23
2019-03-29T11:24:52.097Z,6.50
2019-03-29T11:27:22.829Z,6.00
2019-03-29T11:29:53.693Z,5.33
2019-03-29T11:32:24.532Z,5.17
2019-03-29T11:34:55.562Z,5.90
2019-03-29T11:37:26.314Z,6.27
2019-03-29T11:39:57.434Z,5.60
2019-03-29T11:42:28.352Z,5.53
2019-03-29T11:44:59.249Z,5.40
2019-03-29T11:47:30.105Z,5.30
2019-03-29T11:50:00.970Z,7.40
2019-03-29T11:52:33.825Z,5.40
2019-03-29T11:55:04.480Z,6.27
2019-03-29T11:57:35.324Z,5.70
2019-03-29T12:00:07.151Z,7.37
2019-03-29T12:02:38.039Z,6.70
2019-03-29T12:05:09.140Z,7.67
2019-03-29T12:07:39.878Z,7.00
2019-03-29T12:10:10.978Z,6.47
2019-03-29T12:12:41.776Z,6.73
2019-03-29T12:15:13.706Z,6.90
2019-03-29T12:17:44.746Z,9.47
2019-03-29T12:20:15.713Z,6.07
2019-03-29T12:22:46.611Z,5.20
2019-03-29T12:25:17.579Z,7.70
2019-03-29T12:27:48.301Z,5.97
2019-03-29T12:30:31.365Z,5.53
2019-03-29T12:32:53.019Z,4.97
2019-03-29T12:35:24.097Z,4.70
2019-03-29T12:37:55.186Z,6.13
2019-03-29T12:40:26.078Z,5.10
2019-03-29T12:42:57.015Z,5.13
2019-03-29T12:45:28.074Z,5.43
2019-03-29T12:47:58.876Z,4.30
2019-03-29T12:50:30.710Z,5.53
2019-03-29T12:53:01.524Z,4.63
2019-03-29T12:55:32.600Z,5.57
2019-03-29T12:58:03.671Z,5.27
2019-03-29T13:00:34.784Z,5.77
2019-03-29T13:03:06.180Z,4.70
2019-03-29T13:05:37.007Z,4.93
2019-03-29T13:08:08.229Z,5.87
2019-03-29T13:10:42.272Z,4.60
2019-03-29T13:13:13.412Z,4.70
2019-03-29T13:15:44.442Z,5.10
2019-03-29T13:18:15.736Z,5.23
2019-03-29T13:20:46.729Z,12.83
2019-03-29T13:23:17.462Z,8.97
2019-03-29T13:25:48.628Z,7.50
2019-03-29T13:28:19.503Z,9.00
2019-03-29T13:30:50.593Z,5.83
2019-03-29T13:33:21.327Z,6.57
2019-03-29T13:35:52.967Z,6.73
2019-03-29T13:38:23.897Z,6.70
2019-03-29T13:40:54.688Z,6.20
2019-03-29T13:43:27.906Z,6.50
2019-03-29T13:45:59.042Z,6.30
2019-03-29T13:48:30.159Z,5.60
2019-03-29T13:51:00.928Z,6.23
2019-03-29T13:53:31.874Z,6.13
2019-03-29T13:56:03.060Z,6.40
2019-03-29T13:58:33.882Z,7.33
2019-03-29T14:01:05.061Z,7.93
2019-03-29T14:03:38.003Z,7.03
2019-03-29T14:06:09.846Z,7.30
2019-03-29T14:08:40.642Z,7.23
2019-03-29T14:11:11.431Z,7.23
2019-03-29T14:13:42.144Z,6.80
2019-03-29T14:16:12.953Z,7.97
2019-03-29T14:18:44.174Z,6.93
2019-03-29T14:21:14.983Z,6.90
2019-03-29T14:23:45.718Z,7.57
2019-03-29T14:26:16.453Z,6.93
2019-03-29T14:28:47.512Z,7.50
2019-03-29T14:31:18.379Z,6.33
2019-03-29T14:33:49.924Z,7.57
2019-03-29T14:36:20.797Z,7.70
2019-03-29T14:38:51.507Z,8.33
2019-03-29T14:41:22.432Z,7.43
2019-03-29T14:43:53.464Z,7.90
2019-03-29T14:46:24.184Z,8.43
2019-03-29T14:48:54.999Z,8.77
2019-03-29T14:51:26.270Z,8.80
2019-03-29T14:53:57.772Z,8.00
2019-03-29T14:56:28.519Z,9.43
2019-03-29T14:58:59.355Z,8.20
2019-03-29T15:01:31.180Z,8.50
2019-03-29T15:04:12.449Z,8.83
2019-03-29T15:06:43.405Z,8.47
2019-03-29T15:09:14.961Z,7.93
2019-03-29T15:11:45.785Z,7.93
2019-03-29T15:14:16.534Z,7.80
2019-03-29T15:16:47.986Z,6.97
2019-03-29T15:19:22.205Z,8.27
2019-03-29T15:21:55.774Z,8.53
2019-03-29T15:24:28.141Z,8.30
2019-03-29T15:26:59.461Z,9.33
2019-03-29T15:29:30.346Z,7.90
2019-03-29T15:32:02.776Z,7.93
2019-03-29T15:34:38.725Z,7.87
2019-03-29T15:37:11.968Z,8.60
2019-03-29T15:39:43.465Z,9.50
2019-03-29T15:42:15.221Z,8.97
2019-03-29T15:44:46.093Z,8.77
2019-03-29T15:47:17.402Z,8.03
2019-03-29T15:49:55.935Z,8.20
2019-03-29T15:52:22.416Z,7.47
2019-03-29T15:54:53.150Z,7.07
2019-03-29T15:57:25.015Z,6.37
2019-03-29T15:59:57.321Z,6.23
2019-03-29T16:02:29.558Z,6.30
2019-03-29T16:05:00.715Z,6.93
2019-03-29T16:07:34.966Z,6.67
2019-03-29T16:10:06.553Z,7.33
2019-03-29T16:12:37.282Z,6.87
2019-03-29T16:15:08.858Z,7.33
2019-03-29T16:17:39.720Z,6.50
2019-03-29T16:20:10.679Z,7.77
2019-03-29T16:22:42.539Z,8.73
2019-03-29T16:25:13.570Z,7.50
2019-03-29T16:27:44.425Z,7.50
2019-03-29T16:30:15.910Z,7.53
2019-03-29T16:32:46.607Z,7.30
2019-03-29T16:35:17.350Z,7.70
2019-03-29T16:37:57.050Z,6.83
2019-03-29T16:40:20.575Z,7.80
2019-03-29T16:42:51.430Z,7.87
2019-03-29T16:45:22.231Z,7.23
2019-03-29T16:47:53.831Z,7.30
2019-03-29T16:50:24.635Z,6.93
2019-03-29T16:52:55.343Z,7.27
2019-03-29T16:55:29.797Z,7.10
2019-03-29T16:58:00.613Z,11.57
2019-03-29T17:00:31.374Z,7.20
2019-03-29T17:03:02.568Z,7.47
2019-03-29T17:05:33.370Z,8.53
2019-03-29T17:08:05.409Z,7.30
2019-03-29T17:10:36.798Z,8.13
2019-03-29T17:13:07.578Z,7.60
2019-03-29T17:15:38.333Z,8.57
2019-03-29T17:18:09.031Z,8.73
2019-03-29T17:20:39.978Z,8.70
2019-03-29T17:23:11.001Z,8.07
2019-03-29T17:25:41.900Z,8.70
2019-03-29T17:28:16.909Z,9.14
2019-03-29T17:30:56.875Z,8.77
2019-03-29T17:33:27.635Z,8.73
2019-03-29T17:35:58.693Z,9.60
2019-03-29T17:38:29.946Z,9.83
2019-03-29T17:41:00.754Z,10.33
2019-03-29T17:43:31.612Z,25.40
2019-03-29T17:46:15.599Z,12.40
2019-03-29T17:48:35.565Z,10.73
2019-03-29T17:51:06.907Z,10.00
2019-03-29T17:53:37.607Z,13.73
2019-03-29T17:56:09.239Z,11.50
2019-03-29T17:58:40.048Z,10.30
2019-03-29T18:01:10.763Z,9.47
2019-03-29T18:03:41.581Z,10.00
2019-03-29T18:06:13.264Z,10.37
2019-03-29T18:08:43.973Z,11.40
2019-03-29T18:11:14.772Z,11.93
2019-03-29T18:13:45.768Z,10.73
2019-03-29T18:16:30.002Z,10.90
2019-03-29T18:18:49.468Z,10.07
2019-03-29T18:21:20.389Z,11.80
2019-03-29T18:23:51.634Z,12.07
2019-03-29T18:26:22.504Z,16.90
2019-03-29T18:28:53.481Z,17.37
2019-03-29T18:31:25.318Z,16.20
2019-03-29T18:33:56.553Z,11.83
2019-03-29T18:36:28.071Z,11.93
2019-03-29T18:38:58.881Z,10.43
2019-03-29T18:41:30.827Z,12.20
2019-03-29T18:44:01.663Z,17.87
2019-03-29T18:46:43.995Z,14.00
2019-03-29T18:49:04.996Z,12.47
2019-03-29T18:51:35.799Z,12.60
2019-03-29T18:54:08.192Z,29.70
2019-03-29T18:56:38.896Z,26.73
2019-03-29T18:59:10.079Z,17.20
2019-03-29T19:01:40.780Z,10.90
2019-03-29T19:04:11.509Z,11.57
2019-03-29T19:06:43.045Z,11.40
2019-03-29T19:09:13.869Z,12.83
2019-03-29T19:11:44.637Z,13.30
2019-03-29T19:14:15.557Z,13.03
2019-03-29T19:16:58.276Z,12.97
2019-03-29T19:19:18.738Z,12.73
2019-03-29T19:21:49.449Z,12.60
2019-03-29T19:24:20.190Z,20.33
2019-03-29T19:26:50.884Z,29.63
2019-03-29T19:29:22.054Z,19.13
2019-03-29T19:31:56.025Z,17.20
2019-03-29T19:34:25.448Z,15.17
2019-03-29T19:36:56.374Z,17.50
2019-03-29T19:39:27.111Z,13.33
2019-03-29T19:41:58.747Z,13.97
2019-03-29T19:44:29.808Z,21.60
2019-03-29T19:47:12.720Z,21.03
2019-03-29T19:49:33.398Z,17.40
2019-03-29T19:52:04.201Z,23.80
2019-03-29T19:54:35.262Z,15.43
2019-03-29T19:57:06.257Z,15.33
2019-03-29T19:59:37.075Z,41.93
2019-03-29T20:02:08.220Z,35.03
2019-03-29T20:04:39.008Z,18.30
2019-03-29T20:07:10.247Z,14.00
2019-03-29T20:09:42.189Z,13.30
2019-03-29T20:12:13.206Z,14.23
2019-03-29T20:14:43.963Z,15.90
2019-03-29T20:17:26.968Z,15.00
2019-03-29T20:19:47.345Z,18.97
2019-03-29T20:22:18.228Z,14.27
2019-03-29T20:24:48.969Z,15.10
2019-03-29T20:27:19.842Z,63.80
2019-03-29T20:29:50.578Z,27.33
2019-03-29T20:32:22.288Z,18.10
2019-03-29T20:34:53.438Z,15.80
2019-03-29T20:37:24.145Z,12.70
2019-03-29T20:39:55.253Z,12.80
2019-03-29T20:42:25.943Z,12.93
2019-03-29T20:44:58.194Z,14.33
2019-03-29T20:47:41.441Z,14.73
2019-03-29T20:50:02.311Z,27.93
2019-03-29T20:52:33.363Z,36.20
2019-03-29T20:55:10.059Z,29.93
2019-03-29T20:57:40.932Z,74.63
2019-03-29T21:00:14.715Z,22.07
2019-03-29T21:02:46.310Z,14.43
2019-03-29T21:05:17.223Z,14.07
2019-03-29T21:07:49.208Z,11.93
2019-03-29T21:10:20.270Z,14.13
2019-03-29T21:12:51.490Z,14.93
2019-03-29T21:15:22.828Z,15.73
2019-03-29T21:17:57.123Z,18.33
2019-03-29T21:20:28.452Z,15.13
2019-03-29T21:23:00.157Z,14.60
2019-03-29T21:25:30.919Z,13.73
2019-03-29T21:28:01.765Z,15.17
2019-03-29T21:30:33.803Z,12.10
2019-03-29T21:33:05.083Z,19.40
2019-03-29T21:35:36.017Z,14.67
2019-03-29T21:38:09.514Z,14.23
2019-03-29T21:40:41.931Z,11.27
2019-03-29T21:43:13.987Z,10.77
2019-03-29T21:45:50.437Z,11.37
2019-03-29T21:48:29.344Z,13.57
2019-03-29T21:50:54.122Z,9.93
2019-03-29T21:53:25.343Z,12.57
2019-03-29T21:55:56.081Z,14.73
2019-03-29T21:58:27.179Z,11.10
2019-03-29T22:00:58.063Z,16.17
2019-03-29T22:03:28.763Z,15.27
2019-03-29T22:05:59.483Z,10.50
2019-03-29T22:08:31.563Z,9.70
2019-03-29T22:11:02.792Z,8.67
2019-03-29T22:13:33.596Z,8.40
2019-03-29T22:16:05.074Z,8.70
2019-03-29T22:18:38.205Z,15.33
2019-03-29T22:21:09.162Z,9.60
2019-03-29T22:23:39.972Z,9.27
2019-03-29T22:26:10.774Z,9.00
2019-03-29T22:28:41.697Z,9.83
2019-03-29T22:31:12.418Z,9.33
2019-03-29T22:33:43.154Z,9.27
2019-03-29T22:36:14.176Z,9.33
2019-03-29T22:38:45.319Z,14.77
2019-03-29T22:41:16.461Z,11.13
2019-03-29T22:43:48.086Z,9.20
2019-03-29T22:46:18.978Z,9.50
2019-03-29T22:48:52.933Z,16.60
2019-03-29T22:51:22.225Z,12.67
2019-03-29T22:53:53.715Z,26.07
2019-03-29T22:56:24.467Z,23.70
2019-03-29T22:58:55.802Z,34.97
2019-03-29T23:01:27.334Z,24.40
2019-03-29T23:03:58.506Z,25.57
2019-03-29T23:06:29.205Z,20.03
2019-03-29T23:09:00.177Z,10.50
2019-03-29T23:11:31.162Z,16.57
2019-03-29T23:14:02.122Z,24.23
2019-03-29T23:16:32.843Z,21.87
2019-03-29T23:19:06.842Z,21.03
2019-03-29T23:21:36.388Z,12.50
2019-03-29T23:24:07.152Z,11.50
2019-03-29T23:26:38.201Z,22.73
2019-03-29T23:29:09.000Z,14.43
2019-03-29T23:31:39.728Z,22.63
2019-03-29T23:34:10.516Z,12.07
2019-03-29T23:36:41.316Z,16.30
2019-03-29T23:39:12.044Z,20.83
2019-03-29T23:41:42.830Z,26.47
2019-03-29T23:44:13.606Z,27.90
2019-03-29T23:46:44.307Z,11.10
2019-03-29T23:49:21.350Z,9.17
2019-03-29T23:51:48.408Z,14.47
2019-03-29T23:54:20.052Z,21.00
2019-03-29T23:56:51.337Z,13.07
2019-03-29T23:59:22.046Z,22.23
